Virtual Norwegian is not affiliated with Norwegian Air Shuttle in any way.
If you are looking for the real "Norwegian", or you wish to book Norwegian flights, please visit Norwegian.com


We use cookies to ensure you get the best experience on our website.   ACCEPT

ESGG - GOT - Gothenborg (Landvetter)

General Info Alternate Airport
ICAO: ESGG Elevation: 506 ft ICAO: ESGJ
IATA: GOT Country: Sweden IATA: JKG
City: Gothenborg Charts: Log in to view charts City: Joenkoeping
Name: Landvetter Hub: No Name Jonkoping
General Info
ICAO: ESGG
IATA: GOT
City: Gothenborg
Name: Landvetter
Elevation: 506 ft
Country: Sweden
Charts: Log in to view charts
Hub: No
 
Alternate Airport
ICAO: ESGJ
IATA: JKG
City: Joenkoeping
Name: Jonkoping

Weather
211520Z 21014KT 6000 BR OVC003 11/11 Q1018 REDZ
Weather
211520Z 21014KT 6000 BR OVC003 11/11 Q1018 REDZ

Runway Info
03
Length ILS/LOC Course
3299 m 110.30 025
21
Length ILS/LOC Course
3299 m 108.50 205

NOTAMs
NOTAMs currently unavailable.
NOTAMs
NOTAMs currently unavailable

Route map
Airport
Airport (hub)